sensor_id;sensor_type;location;lat;lon;timestamp;P1;durP1;ratioP1;P2;durP2;ratioP2
20093;SDS011;10206;48.012;10.030;2024-01-27T00:01:54;9.27;;;6.17;;
20093;SDS011;10206;48.012;10.030;2024-01-27T00:04:21;9.37;;;6.87;;
20093;SDS011;10206;48.012;10.030;2024-01-27T00:06:47;10.37;;;6.47;;
20093;SDS011;10206;48.012;10.030;2024-01-27T00:09:13;8.87;;;5.57;;
20093;SDS011;10206;48.012;10.030;2024-01-27T00:11:39;7.47;;;5.50;;
20093;SDS011;10206;48.012;10.030;2024-01-27T00:14:05;6.30;;;4.97;;
20093;SDS011;10206;48.012;10.030;2024-01-27T00:16:31;8.47;;;5.67;;
20093;SDS011;10206;48.012;10.030;2024-01-27T00:18:57;10.33;;;5.43;;
20093;SDS011;10206;48.012;10.030;2024-01-27T00:21:23;9.20;;;5.40;;
20093;SDS011;10206;48.012;10.030;2024-01-27T00:23:50;10.43;;;4.97;;
20093;SDS011;10206;48.012;10.030;2024-01-27T00:26:16;6.10;;;5.20;;
20093;SDS011;10206;48.012;10.030;2024-01-27T00:28:42;9.80;;;4.97;;
20093;SDS011;10206;48.012;10.030;2024-01-27T00:31:08;6.37;;;4.40;;
20093;SDS011;10206;48.012;10.030;2024-01-27T00:33:34;5.93;;;4.50;;
20093;SDS011;10206;48.012;10.030;2024-01-27T00:36:01;6.17;;;4.10;;
20093;SDS011;10206;48.012;10.030;2024-01-27T00:38:27;4.70;;;3.60;;
20093;SDS011;10206;48.012;10.030;2024-01-27T00:40:53;5.57;;;4.27;;
20093;SDS011;10206;48.012;10.030;2024-01-27T00:43:19;6.90;;;4.07;;
20093;SDS011;10206;48.012;10.030;2024-01-27T00:45:45;6.47;;;4.30;;
20093;SDS011;10206;48.012;10.030;2024-01-27T00:48:11;4.87;;;4.00;;
20093;SDS011;10206;48.012;10.030;2024-01-27T00:50:38;7.30;;;4.03;;
20093;SDS011;10206;48.012;10.030;2024-01-27T00:53:04;6.00;;;4.33;;
20093;SDS011;10206;48.012;10.030;2024-01-27T00:55:30;6.03;;;4.40;;
20093;SDS011;10206;48.012;10.030;2024-01-27T00:57:56;6.30;;;4.50;;
20093;SDS011;10206;48.012;10.030;2024-01-27T01:00:22;5.03;;;4.47;;
20093;SDS011;10206;48.012;10.030;2024-01-27T01:02:48;6.00;;;4.63;;
20093;SDS011;10206;48.012;10.030;2024-01-27T01:05:15;5.07;;;4.37;;
20093;SDS011;10206;48.012;10.030;2024-01-27T01:07:41;7.97;;;4.97;;
20093;SDS011;10206;48.012;10.030;2024-01-27T01:10:07;4.77;;;3.93;;
20093;SDS011;10206;48.012;10.030;2024-01-27T01:12:34;6.33;;;3.73;;
20093;SDS011;10206;48.012;10.030;2024-01-27T01:15:00;5.90;;;3.73;;
20093;SDS011;10206;48.012;10.030;2024-01-27T01:17:26;6.90;;;3.70;;
20093;SDS011;10206;48.012;10.030;2024-01-27T01:19:52;5.50;;;4.00;;
20093;SDS011;10206;48.012;10.030;2024-01-27T01:22:18;4.87;;;3.47;;
20093;SDS011;10206;48.012;10.030;2024-01-27T01:24:44;5.90;;;4.30;;
20093;SDS011;10206;48.012;10.030;2024-01-27T01:27:11;6.10;;;4.03;;
20093;SDS011;10206;48.012;10.030;2024-01-27T01:29:37;3.90;;;3.40;;
20093;SDS011;10206;48.012;10.030;2024-01-27T01:32:03;4.90;;;3.70;;
20093;SDS011;10206;48.012;10.030;2024-01-27T01:34:29;4.80;;;3.60;;
20093;SDS011;10206;48.012;10.030;2024-01-27T01:36:56;6.13;;;3.70;;
20093;SDS011;10206;48.012;10.030;2024-01-27T01:39:23;5.57;;;3.90;;
20093;SDS011;10206;48.012;10.030;2024-01-27T01:41:49;6.50;;;4.53;;
20093;SDS011;10206;48.012;10.030;2024-01-27T01:44:15;5.67;;;4.43;;
20093;SDS011;10206;48.012;10.030;2024-01-27T01:46:41;6.07;;;3.70;;
20093;SDS011;10206;48.012;10.030;2024-01-27T01:49:07;4.37;;;3.63;;
20093;SDS011;10206;48.012;10.030;2024-01-27T01:51:33;4.97;;;3.60;;
20093;SDS011;10206;48.012;10.030;2024-01-27T01:53:59;6.30;;;3.90;;
20093;SDS011;10206;48.012;10.030;2024-01-27T01:56:26;4.67;;;3.40;;
20093;SDS011;10206;48.012;10.030;2024-01-27T01:58:53;4.33;;;3.33;;
20093;SDS011;10206;48.012;10.030;2024-01-27T02:01:20;6.70;;;3.67;;
20093;SDS011;10206;48.012;10.030;2024-01-27T02:03:53;4.10;;;3.47;;
20093;SDS011;10206;48.012;10.030;2024-01-27T02:06:20;6.57;;;3.87;;
20093;SDS011;10206;48.012;10.030;2024-01-27T02:08:46;4.67;;;3.57;;
20093;SDS011;10206;48.012;10.030;2024-01-27T02:11:12;6.60;;;3.80;;
20093;SDS011;10206;48.012;10.030;2024-01-27T02:13:38;6.57;;;3.43;;
20093;SDS011;10206;48.012;10.030;2024-01-27T02:16:04;7.20;;;3.70;;
20093;SDS011;10206;48.012;10.030;2024-01-27T02:18:31;4.67;;;3.53;;
20093;SDS011;10206;48.012;10.030;2024-01-27T02:20:57;6.47;;;3.70;;
20093;SDS011;10206;48.012;10.030;2024-01-27T02:23:23;6.37;;;3.80;;
20093;SDS011;10206;48.012;10.030;2024-01-27T02:25:49;4.70;;;3.93;;
20093;SDS011;10206;48.012;10.030;2024-01-27T02:28:15;5.37;;;3.47;;
20093;SDS011;10206;48.012;10.030;2024-01-27T02:30:42;4.70;;;3.60;;
20093;SDS011;10206;48.012;10.030;2024-01-27T02:33:08;4.93;;;3.83;;
20093;SDS011;10206;48.012;10.030;2024-01-27T02:35:34;8.07;;;3.73;;
20093;SDS011;10206;48.012;10.030;2024-01-27T02:38:01;7.67;;;3.90;;
20093;SDS011;10206;48.012;10.030;2024-01-27T02:40:27;5.97;;;3.77;;
20093;SDS011;10206;48.012;10.030;2024-01-27T02:42:53;4.63;;;3.13;;
20093;SDS011;10206;48.012;10.030;2024-01-27T02:45:19;6.23;;;3.53;;
20093;SDS011;10206;48.012;10.030;2024-01-27T02:47:45;4.97;;;3.50;;
20093;SDS011;10206;48.012;10.030;2024-01-27T02:50:11;5.70;;;3.50;;
20093;SDS011;10206;48.012;10.030;2024-01-27T02:52:38;7.23;;;3.70;;
20093;SDS011;10206;48.012;10.030;2024-01-27T02:55:04;6.43;;;3.70;;
20093;SDS011;10206;48.012;10.030;2024-01-27T02:57:31;6.37;;;3.47;;
20093;SDS011;10206;48.012;10.030;2024-01-27T02:59:57;5.23;;;3.40;;
20093;SDS011;10206;48.012;10.030;2024-01-27T03:02:23;5.47;;;3.67;;
20093;SDS011;10206;48.012;10.030;2024-01-27T03:04:49;4.50;;;3.17;;
20093;SDS011;10206;48.012;10.030;2024-01-27T03:07:15;5.00;;;3.77;;
20093;SDS011;10206;48.012;10.030;2024-01-27T03:09:42;6.23;;;3.97;;
20093;SDS011;10206;48.012;10.030;2024-01-27T03:12:08;4.80;;;3.73;;
20093;SDS011;10206;48.012;10.030;2024-01-27T03:14:34;4.67;;;3.77;;
20093;SDS011;10206;48.012;10.030;2024-01-27T03:17:00;4.87;;;3.73;;
20093;SDS011;10206;48.012;10.030;2024-01-27T03:19:26;6.97;;;4.33;;
20093;SDS011;10206;48.012;10.030;2024-01-27T03:21:53;6.53;;;4.70;;
20093;SDS011;10206;48.012;10.030;2024-01-27T03:24:19;8.47;;;5.10;;
20093;SDS011;10206;48.012;10.030;2024-01-27T03:26:45;6.93;;;4.27;;
20093;SDS011;10206;48.012;10.030;2024-01-27T03:29:11;7.20;;;4.80;;
20093;SDS011;10206;48.012;10.030;2024-01-27T03:31:37;5.37;;;3.83;;
20093;SDS011;10206;48.012;10.030;2024-01-27T03:34:03;9.63;;;3.90;;
20093;SDS011;10206;48.012;10.030;2024-01-27T03:36:30;5.13;;;3.80;;
20093;SDS011;10206;48.012;10.030;2024-01-27T03:38:57;7.17;;;4.40;;
20093;SDS011;10206;48.012;10.030;2024-01-27T03:41:23;5.53;;;3.80;;
20093;SDS011;10206;48.012;10.030;2024-01-27T03:43:50;5.10;;;3.80;;
20093;SDS011;10206;48.012;10.030;2024-01-27T03:46:16;5.40;;;3.87;;
20093;SDS011;10206;48.012;10.030;2024-01-27T03:48:42;6.47;;;4.43;;
20093;SDS011;10206;48.012;10.030;2024-01-27T03:51:08;9.33;;;5.13;;
20093;SDS011;10206;48.012;10.030;2024-01-27T03:53:34;5.63;;;4.03;;
20093;SDS011;10206;48.012;10.030;2024-01-27T03:56:01;5.27;;;3.83;;
20093;SDS011;10206;48.012;10.030;2024-01-27T03:58:29;6.10;;;4.00;;
20093;SDS011;10206;48.012;10.030;2024-01-27T04:00:56;7.57;;;4.43;;
20093;SDS011;10206;48.012;10.030;2024-01-27T04:03:22;7.87;;;3.63;;
20093;SDS011;10206;48.012;10.030;2024-01-27T04:05:48;4.70;;;3.60;;
20093;SDS011;10206;48.012;10.030;2024-01-27T04:08:14;4.73;;;3.57;;
20093;SDS011;10206;48.012;10.030;2024-01-27T04:10:41;6.03;;;3.60;;
20093;SDS011;10206;48.012;10.030;2024-01-27T04:13:07;4.97;;;3.67;;
20093;SDS011;10206;48.012;10.030;2024-01-27T04:15:33;9.97;;;3.60;;
20093;SDS011;10206;48.012;10.030;2024-01-27T04:18:03;5.57;;;3.57;;
20093;SDS011;10206;48.012;10.030;2024-01-27T04:20:30;6.03;;;3.73;;
20093;SDS011;10206;48.012;10.030;2024-01-27T04:22:57;6.37;;;3.70;;
20093;SDS011;10206;48.012;10.030;2024-01-27T04:25:23;6.17;;;3.83;;
20093;SDS011;10206;48.012;10.030;2024-01-27T04:27:49;9.00;;;4.40;;
20093;SDS011;10206;48.012;10.030;2024-01-27T04:30:15;6.80;;;4.20;;
20093;SDS011;10206;48.012;10.030;2024-01-27T04:32:41;8.57;;;4.50;;
20093;SDS011;10206;48.012;10.030;2024-01-27T04:35:10;8.00;;;4.83;;
20093;SDS011;10206;48.012;10.030;2024-01-27T04:37:37;6.20;;;3.70;;
20093;SDS011;10206;48.012;10.030;2024-01-27T04:40:06;6.40;;;4.20;;
20093;SDS011;10206;48.012;10.030;2024-01-27T04:42:33;4.70;;;3.90;;
20093;SDS011;10206;48.012;10.030;2024-01-27T04:45:00;5.90;;;4.30;;
20093;SDS011;10206;48.012;10.030;2024-01-27T04:47:27;5.83;;;4.40;;
20093;SDS011;10206;48.012;10.030;2024-01-27T04:49:53;4.97;;;4.17;;
20093;SDS011;10206;48.012;10.030;2024-01-27T04:52:19;6.50;;;4.40;;
20093;SDS011;10206;48.012;10.030;2024-01-27T04:54:46;6.70;;;4.23;;
20093;SDS011;10206;48.012;10.030;2024-01-27T04:57:12;6.23;;;3.90;;
20093;SDS011;10206;48.012;10.030;2024-01-27T04:59:38;5.37;;;3.83;;
20093;SDS011;10206;48.012;10.030;2024-01-27T05:02:04;4.43;;;3.60;;
20093;SDS011;10206;48.012;10.030;2024-01-27T05:04:30;5.60;;;4.30;;
20093;SDS011;10206;48.012;10.030;2024-01-27T05:06:56;5.80;;;4.10;;
20093;SDS011;10206;48.012;10.030;2024-01-27T05:09:22;5.30;;;4.00;;
20093;SDS011;10206;48.012;10.030;2024-01-27T05:11:49;6.23;;;3.80;;
20093;SDS011;10206;48.012;10.030;2024-01-27T05:14:17;7.20;;;4.00;;
20093;SDS011;10206;48.012;10.030;2024-01-27T05:16:44;5.23;;;3.80;;
20093;SDS011;10206;48.012;10.030;2024-01-27T05:19:10;5.60;;;4.33;;
20093;SDS011;10206;48.012;10.030;2024-01-27T05:21:37;4.57;;;3.80;;
20093;SDS011;10206;48.012;10.030;2024-01-27T05:24:03;5.63;;;4.20;;
20093;SDS011;10206;48.012;10.030;2024-01-27T05:26:30;6.17;;;4.83;;
20093;SDS011;10206;48.012;10.030;2024-01-27T05:28:56;8.03;;;4.50;;
20093;SDS011;10206;48.012;10.030;2024-01-27T05:31:22;6.27;;;4.33;;
20093;SDS011;10206;48.012;10.030;2024-01-27T05:33:48;6.30;;;4.30;;
20093;SDS011;10206;48.012;10.030;2024-01-27T05:36:14;6.87;;;3.87;;
20093;SDS011;10206;48.012;10.030;2024-01-27T05:38:41;7.60;;;4.93;;
20093;SDS011;10206;48.012;10.030;2024-01-27T05:41:07;7.00;;;4.27;;
20093;SDS011;10206;48.012;10.030;2024-01-27T05:43:33;7.70;;;4.20;;
20093;SDS011;10206;48.012;10.030;2024-01-27T05:45:59;6.13;;;4.10;;
20093;SDS011;10206;48.012;10.030;2024-01-27T05:48:25;5.67;;;3.90;;
20093;SDS011;10206;48.012;10.030;2024-01-27T05:50:55;9.80;;;5.00;;
20093;SDS011;10206;48.012;10.030;2024-01-27T05:53:25;7.83;;;5.10;;
20093;SDS011;10206;48.012;10.030;2024-01-27T05:55:52;7.90;;;4.30;;
20093;SDS011;10206;48.012;10.030;2024-01-27T05:58:19;6.83;;;4.73;;
20093;SDS011;10206;48.012;10.030;2024-01-27T06:00:48;7.67;;;4.90;;
20093;SDS011;10206;48.012;10.030;2024-01-27T06:03:14;5.77;;;4.77;;
20093;SDS011;10206;48.012;10.030;2024-01-27T06:05:42;9.30;;;5.10;;
20093;SDS011;10206;48.012;10.030;2024-01-27T06:08:08;10.50;;;5.50;;
20093;SDS011;10206;48.012;10.030;2024-01-27T06:10:35;8.67;;;5.70;;
20093;SDS011;10206;48.012;10.030;2024-01-27T06:13:02;10.10;;;5.87;;
20093;SDS011;10206;48.012;10.030;2024-01-27T06:15:28;9.40;;;5.93;;
20093;SDS011;10206;48.012;10.030;2024-01-27T06:17:54;10.67;;;6.00;;
20093;SDS011;10206;48.012;10.030;2024-01-27T06:20:21;9.77;;;7.10;;
20093;SDS011;10206;48.012;10.030;2024-01-27T06:22:47;11.33;;;7.90;;
20093;SDS011;10206;48.012;10.030;2024-01-27T06:25:14;12.43;;;7.97;;
20093;SDS011;10206;48.012;10.030;2024-01-27T06:27:41;11.93;;;8.20;;
20093;SDS011;10206;48.012;10.030;2024-01-27T06:30:07;11.03;;;7.17;;
20093;SDS011;10206;48.012;10.030;2024-01-27T06:32:35;8.50;;;6.23;;
20093;SDS011;10206;48.012;10.030;2024-01-27T06:35:01;7.50;;;5.70;;
20093;SDS011;10206;48.012;10.030;2024-01-27T06:37:28;12.87;;;7.07;;
20093;SDS011;10206;48.012;10.030;2024-01-27T06:39:54;8.53;;;5.57;;
20093;SDS011;10206;48.012;10.030;2024-01-27T06:42:21;8.50;;;5.60;;
20093;SDS011;10206;48.012;10.030;2024-01-27T06:44:47;7.73;;;4.87;;
20093;SDS011;10206;48.012;10.030;2024-01-27T06:47:13;8.37;;;5.30;;
20093;SDS011;10206;48.012;10.030;2024-01-27T06:49:39;9.57;;;5.40;;
20093;SDS011;10206;48.012;10.030;2024-01-27T06:52:05;7.10;;;4.80;;
20093;SDS011;10206;48.012;10.030;2024-01-27T06:54:31;7.53;;;5.10;;
20093;SDS011;10206;48.012;10.030;2024-01-27T06:57:00;10.73;;;5.03;;
20093;SDS011;10206;48.012;10.030;2024-01-27T06:59:26;8.83;;;5.77;;
20093;SDS011;10206;48.012;10.030;2024-01-27T07:01:52;7.20;;;5.10;;
20093;SDS011;10206;48.012;10.030;2024-01-27T07:04:19;7.17;;;5.10;;
20093;SDS011;10206;48.012;10.030;2024-01-27T07:06:45;7.30;;;5.03;;
20093;SDS011;10206;48.012;10.030;2024-01-27T07:09:11;8.30;;;5.27;;
20093;SDS011;10206;48.012;10.030;2024-01-27T07:11:37;7.20;;;5.03;;
20093;SDS011;10206;48.012;10.030;2024-01-27T07:14:04;7.63;;;5.23;;
20093;SDS011;10206;48.012;10.030;2024-01-27T07:16:31;9.10;;;5.20;;
20093;SDS011;10206;48.012;10.030;2024-01-27T07:18:59;7.80;;;5.60;;
20093;SDS011;10206;48.012;10.030;2024-01-27T07:21:25;6.33;;;5.23;;
20093;SDS011;10206;48.012;10.030;2024-01-27T07:23:56;9.23;;;5.80;;
20093;SDS011;10206;48.012;10.030;2024-01-27T07:26:22;8.03;;;5.70;;
20093;SDS011;10206;48.012;10.030;2024-01-27T07:28:48;9.43;;;6.43;;
20093;SDS011;10206;48.012;10.030;2024-01-27T07:31:14;12.23;;;6.47;;
20093;SDS011;10206;48.012;10.030;2024-01-27T07:33:41;12.77;;;7.70;;
20093;SDS011;10206;48.012;10.030;2024-01-27T07:36:07;11.03;;;6.83;;
20093;SDS011;10206;48.012;10.030;2024-01-27T07:38:33;12.50;;;7.50;;
20093;SDS011;10206;48.012;10.030;2024-01-27T07:40:59;12.83;;;7.73;;
20093;SDS011;10206;48.012;10.030;2024-01-27T07:43:25;11.90;;;7.50;;
20093;SDS011;10206;48.012;10.030;2024-01-27T07:45:54;13.87;;;9.10;;
20093;SDS011;10206;48.012;10.030;2024-01-27T07:48:20;14.43;;;9.53;;
20093;SDS011;10206;48.012;10.030;2024-01-27T07:50:47;13.60;;;9.63;;
20093;SDS011;10206;48.012;10.030;2024-01-27T07:53:14;14.60;;;9.87;;
20093;SDS011;10206;48.012;10.030;2024-01-27T07:55:41;14.20;;;9.27;;
20093;SDS011;10206;48.012;10.030;2024-01-27T07:58:07;12.90;;;8.30;;
20093;SDS011;10206;48.012;10.030;2024-01-27T08:00:33;12.60;;;8.27;;
20093;SDS011;10206;48.012;10.030;2024-01-27T08:02:59;13.57;;;8.13;;
20093;SDS011;10206;48.012;10.030;2024-01-27T08:05:25;13.47;;;8.27;;
20093;SDS011;10206;48.012;10.030;2024-01-27T08:07:52;12.13;;;7.67;;
20093;SDS011;10206;48.012;10.030;2024-01-27T08:10:18;8.87;;;7.07;;
20093;SDS011;10206;48.012;10.030;2024-01-27T08:12:44;10.60;;;7.30;;
20093;SDS011;10206;48.012;10.030;2024-01-27T08:15:11;10.00;;;6.30;;
20093;SDS011;10206;48.012;10.030;2024-01-27T08:17:37;12.33;;;7.43;;
20093;SDS011;10206;48.012;10.030;2024-01-27T08:20:04;9.77;;;7.17;;
20093;SDS011;10206;48.012;10.030;2024-01-27T08:22:30;10.67;;;7.47;;
20093;SDS011;10206;48.012;10.030;2024-01-27T08:24:56;10.60;;;7.30;;
20093;SDS011;10206;48.012;10.030;2024-01-27T08:27:22;10.37;;;8.00;;
20093;SDS011;10206;48.012;10.030;2024-01-27T08:29:49;9.77;;;6.80;;
20093;SDS011;10206;48.012;10.030;2024-01-27T08:32:15;12.07;;;7.70;;
20093;SDS011;10206;48.012;10.030;2024-01-27T08:34:42;11.77;;;7.30;;
20093;SDS011;10206;48.012;10.030;2024-01-27T08:37:15;12.40;;;7.73;;
20093;SDS011;10206;48.012;10.030;2024-01-27T08:39:45;16.67;;;9.03;;
20093;SDS011;10206;48.012;10.030;2024-01-27T08:42:11;15.30;;;11.13;;
20093;SDS011;10206;48.012;10.030;2024-01-27T08:44:38;10.30;;;7.90;;
20093;SDS011;10206;48.012;10.030;2024-01-27T08:47:04;10.53;;;7.30;;
20093;SDS011;10206;48.012;10.030;2024-01-27T08:49:30;11.03;;;8.00;;
20093;SDS011;10206;48.012;10.030;2024-01-27T08:51:57;17.30;;;11.10;;
20093;SDS011;10206;48.012;10.030;2024-01-27T08:54:23;31.73;;;17.87;;
20093;SDS011;10206;48.012;10.030;2024-01-27T08:56:49;22.00;;;13.37;;
20093;SDS011;10206;48.012;10.030;2024-01-27T08:59:15;15.03;;;10.23;;
20093;SDS011;10206;48.012;10.030;2024-01-27T09:01:41;15.77;;;10.03;;
20093;SDS011;10206;48.012;10.030;2024-01-27T09:04:07;16.00;;;10.63;;
20093;SDS011;10206;48.012;10.030;2024-01-27T09:06:34;25.83;;;15.77;;
20093;SDS011;10206;48.012;10.030;2024-01-27T09:09:00;19.63;;;12.63;;
20093;SDS011;10206;48.012;10.030;2024-01-27T09:11:26;15.50;;;9.00;;
20093;SDS011;10206;48.012;10.030;2024-01-27T09:13:55;12.23;;;7.67;;
20093;SDS011;10206;48.012;10.030;2024-01-27T09:16:21;14.53;;;8.37;;
20093;SDS011;10206;48.012;10.030;2024-01-27T09:18:48;16.33;;;11.37;;
20093;SDS011;10206;48.012;10.030;2024-01-27T09:21:17;20.97;;;12.37;;
20093;SDS011;10206;48.012;10.030;2024-01-27T09:23:48;17.50;;;12.10;;
20093;SDS011;10206;48.012;10.030;2024-01-27T09:26:14;18.27;;;12.23;;
20093;SDS011;10206;48.012;10.030;2024-01-27T09:28:43;15.97;;;11.97;;
20093;SDS011;10206;48.012;10.030;2024-01-27T09:31:11;19.37;;;12.27;;
20093;SDS011;10206;48.012;10.030;2024-01-27T09:33:37;17.57;;;10.33;;
20093;SDS011;10206;48.012;10.030;2024-01-27T09:36:03;16.43;;;10.63;;
20093;SDS011;10206;48.012;10.030;2024-01-27T09:38:29;16.07;;;9.43;;
20093;SDS011;10206;48.012;10.030;2024-01-27T09:40:55;20.37;;;10.10;;
20093;SDS011;10206;48.012;10.030;2024-01-27T09:43:22;16.50;;;9.57;;
20093;SDS011;10206;48.012;10.030;2024-01-27T09:45:51;13.83;;;9.27;;
20093;SDS011;10206;48.012;10.030;2024-01-27T09:48:17;12.53;;;8.50;;
20093;SDS011;10206;48.012;10.030;2024-01-27T09:50:44;14.17;;;7.60;;
20093;SDS011;10206;48.012;10.030;2024-01-27T09:53:13;17.13;;;7.50;;
20093;SDS011;10206;48.012;10.030;2024-01-27T09:55:39;13.80;;;6.73;;
20093;SDS011;10206;48.012;10.030;2024-01-27T09:58:05;17.73;;;7.40;;
20093;SDS011;10206;48.012;10.030;2024-01-27T10:00:33;14.47;;;6.67;;
20093;SDS011;10206;48.012;10.030;2024-01-27T10:03:04;16.37;;;6.77;;
20093;SDS011;10206;48.012;10.030;2024-01-27T10:05:31;14.27;;;6.37;;
20093;SDS011;10206;48.012;10.030;2024-01-27T10:07:57;15.40;;;7.77;;
20093;SDS011;10206;48.012;10.030;2024-01-27T10:10:24;10.17;;;6.40;;
20093;SDS011;10206;48.012;10.030;2024-01-27T10:12:50;14.00;;;7.07;;
20093;SDS011;10206;48.012;10.030;2024-01-27T10:15:19;10.90;;;6.03;;
20093;SDS011;10206;48.012;10.030;2024-01-27T10:17:46;9.80;;;6.00;;
20093;SDS011;10206;48.012;10.030;2024-01-27T10:20:12;13.27;;;6.53;;
20093;SDS011;10206;48.012;10.030;2024-01-27T10:22:43;12.23;;;6.70;;
20093;SDS011;10206;48.012;10.030;2024-01-27T10:25:10;12.57;;;6.90;;
20093;SDS011;10206;48.012;10.030;2024-01-27T10:27:37;9.63;;;6.23;;
20093;SDS011;10206;48.012;10.030;2024-01-27T10:30:04;14.00;;;6.90;;
20093;SDS011;10206;48.012;10.030;2024-01-27T10:32:32;10.00;;;6.23;;
20093;SDS011;10206;48.012;10.030;2024-01-27T10:35:05;12.00;;;7.07;;
20093;SDS011;10206;48.012;10.030;2024-01-27T10:37:33;12.50;;;6.47;;
20093;SDS011;10206;48.012;10.030;2024-01-27T10:40:03;11.30;;;7.27;;
20093;SDS011;10206;48.012;10.030;2024-01-27T10:42:33;14.03;;;6.23;;
20093;SDS011;10206;48.012;10.030;2024-01-27T10:45:01;10.47;;;5.93;;
20093;SDS011;10206;48.012;10.030;2024-01-27T10:47:28;14.60;;;6.20;;
20093;SDS011;10206;48.012;10.030;2024-01-27T10:49:56;9.93;;;6.23;;
20093;SDS011;10206;48.012;10.030;2024-01-27T10:52:28;12.20;;;6.47;;
20093;SDS011;10206;48.012;10.030;2024-01-27T10:55:00;12.23;;;6.27;;
20093;SDS011;10206;48.012;10.030;2024-01-27T10:57:31;15.13;;;6.87;;
20093;SDS011;10206;48.012;10.030;2024-01-27T10:59:59;14.27;;;6.73;;
20093;SDS011;10206;48.012;10.030;2024-01-27T11:02:31;11.47;;;5.90;;
20093;SDS011;10206;48.012;10.030;2024-01-27T11:05:02;12.10;;;6.63;;
20093;SDS011;10206;48.012;10.030;2024-01-27T11:07:33;13.07;;;7.40;;
20093;SDS011;10206;48.012;10.030;2024-01-27T11:10:00;11.03;;;6.67;;
20093;SDS011;10206;48.012;10.030;2024-01-27T11:12:26;11.67;;;7.37;;
20093;SDS011;10206;48.012;10.030;2024-01-27T11:14:53;14.70;;;8.73;;
20093;SDS011;10206;48.012;10.030;2024-01-27T11:17:19;14.50;;;7.17;;
20093;SDS011;10206;48.012;10.030;2024-01-27T11:19:45;11.63;;;8.00;;
20093;SDS011;10206;48.012;10.030;2024-01-27T11:22:25;11.93;;;7.67;;
20093;SDS011;10206;48.012;10.030;2024-01-27T11:25:08;14.20;;;7.00;;
20093;SDS011;10206;48.012;10.030;2024-01-27T11:27:42;12.70;;;6.90;;
20093;SDS011;10206;48.012;10.030;2024-01-27T11:30:25;14.90;;;6.90;;
20093;SDS011;10206;48.012;10.030;2024-01-27T11:32:54;10.50;;;5.97;;
20093;SDS011;10206;48.012;10.030;2024-01-27T11:35:25;10.33;;;5.60;;
20093;SDS011;10206;48.012;10.030;2024-01-27T11:37:52;7.43;;;4.90;;
20093;SDS011;10206;48.012;10.030;2024-01-27T11:40:19;13.90;;;6.73;;
20093;SDS011;10206;48.012;10.030;2024-01-27T11:42:57;16.63;;;9.30;;
20093;SDS011;10206;48.012;10.030;2024-01-27T11:45:25;10.50;;;6.43;;
20093;SDS011;10206;48.012;10.030;2024-01-27T11:47:55;8.87;;;5.87;;
20093;SDS011;10206;48.012;10.030;2024-01-27T11:50:22;10.80;;;6.40;;
20093;SDS011;10206;48.012;10.030;2024-01-27T11:52:48;10.63;;;6.23;;
20093;SDS011;10206;48.012;10.030;2024-01-27T11:55:15;13.73;;;7.73;;
20093;SDS011;10206;48.012;10.030;2024-01-27T11:57:41;13.40;;;5.43;;
20093;SDS011;10206;48.012;10.030;2024-01-27T12:00:07;13.60;;;5.97;;
20093;SDS011;10206;48.012;10.030;2024-01-27T12:02:37;14.03;;;5.73;;
20093;SDS011;10206;48.012;10.030;2024-01-27T12:05:04;12.57;;;6.60;;
20093;SDS011;10206;48.012;10.030;2024-01-27T12:07:31;18.60;;;9.43;;
20093;SDS011;10206;48.012;10.030;2024-01-27T12:09:58;11.20;;;5.73;;
20093;SDS011;10206;48.012;10.030;2024-01-27T12:12:24;16.37;;;5.80;;
20093;SDS011;10206;48.012;10.030;2024-01-27T12:14:50;7.27;;;4.80;;
20093;SDS011;10206;48.012;10.030;2024-01-27T12:17:17;10.50;;;5.73;;
20093;SDS011;10206;48.012;10.030;2024-01-27T12:19:47;12.90;;;5.53;;
20093;SDS011;10206;48.012;10.030;2024-01-27T12:22:23;12.10;;;6.43;;
20093;SDS011;10206;48.012;10.030;2024-01-27T12:24:51;12.37;;;7.03;;
20093;SDS011;10206;48.012;10.030;2024-01-27T12:27:32;11.23;;;6.87;;
20093;SDS011;10206;48.012;10.030;2024-01-27T12:29:59;9.40;;;5.97;;
20093;SDS011;10206;48.012;10.030;2024-01-27T12:32:26;12.77;;;6.07;;
20093;SDS011;10206;48.012;10.030;2024-01-27T12:34:53;7.77;;;4.80;;
20093;SDS011;10206;48.012;10.030;2024-01-27T12:37:21;11.93;;;4.50;;
20093;SDS011;10206;48.012;10.030;2024-01-27T12:39:47;10.80;;;4.70;;
20093;SDS011;10206;48.012;10.030;2024-01-27T12:42:16;11.37;;;5.70;;
20093;SDS011;10206;48.012;10.030;2024-01-27T12:44:42;9.00;;;5.10;;
20093;SDS011;10206;48.012;10.030;2024-01-27T12:47:12;6.07;;;4.90;;
20093;SDS011;10206;48.012;10.030;2024-01-27T12:49:39;9.30;;;4.53;;
20093;SDS011;10206;48.012;10.030;2024-01-27T12:52:08;10.23;;;4.77;;
20093;SDS011;10206;48.012;10.030;2024-01-27T12:54:34;10.47;;;5.10;;
20093;SDS011;10206;48.012;10.030;2024-01-27T12:57:00;11.50;;;5.33;;
20093;SDS011;10206;48.012;10.030;2024-01-27T12:59:27;9.77;;;5.13;;
20093;SDS011;10206;48.012;10.030;2024-01-27T13:01:53;8.53;;;4.70;;
20093;SDS011;10206;48.012;10.030;2024-01-27T13:04:20;7.80;;;4.77;;
20093;SDS011;10206;48.012;10.030;2024-01-27T13:06:46;9.43;;;4.90;;
20093;SDS011;10206;48.012;10.030;2024-01-27T13:09:12;15.40;;;10.67;;
20093;SDS011;10206;48.012;10.030;2024-01-27T13:11:38;13.03;;;8.93;;
20093;SDS011;10206;48.012;10.030;2024-01-27T13:14:05;12.77;;;8.57;;
20093;SDS011;10206;48.012;10.030;2024-01-27T13:16:31;25.40;;;13.73;;
20093;SDS011;10206;48.012;10.030;2024-01-27T13:18:57;7.53;;;4.90;;
20093;SDS011;10206;48.012;10.030;2024-01-27T13:21:23;11.27;;;6.10;;
20093;SDS011;10206;48.012;10.030;2024-01-27T13:23:50;11.03;;;5.50;;
20093;SDS011;10206;48.012;10.030;2024-01-27T13:26:17;10.90;;;5.43;;
20093;SDS011;10206;48.012;10.030;2024-01-27T13:28:44;13.97;;;7.40;;
20093;SDS011;10206;48.012;10.030;2024-01-27T13:31:13;10.00;;;5.17;;
20093;SDS011;10206;48.012;10.030;2024-01-27T13:33:40;8.40;;;5.47;;
20093;SDS011;10206;48.012;10.030;2024-01-27T13:36:06;8.83;;;4.87;;
20093;SDS011;10206;48.012;10.030;2024-01-27T13:38:32;8.23;;;4.80;;
20093;SDS011;10206;48.012;10.030;2024-01-27T13:41:00;9.43;;;5.20;;
20093;SDS011;10206;48.012;10.030;2024-01-27T13:43:26;10.90;;;5.53;;
20093;SDS011;10206;48.012;10.030;2024-01-27T13:45:52;13.60;;;6.17;;
20093;SDS011;10206;48.012;10.030;2024-01-27T13:48:19;9.90;;;5.13;;
20093;SDS011;10206;48.012;10.030;2024-01-27T13:50:46;8.53;;;6.10;;
20093;SDS011;10206;48.012;10.030;2024-01-27T13:53:12;14.63;;;7.37;;
20093;SDS011;10206;48.012;10.030;2024-01-27T13:55:39;13.17;;;6.33;;
20093;SDS011;10206;48.012;10.030;2024-01-27T13:58:05;10.37;;;5.27;;
20093;SDS011;10206;48.012;10.030;2024-01-27T14:00:31;8.87;;;5.47;;
20093;SDS011;10206;48.012;10.030;2024-01-27T14:02:59;11.43;;;5.13;;
20093;SDS011;10206;48.012;10.030;2024-01-27T14:05:25;9.60;;;5.30;;
20093;SDS011;10206;48.012;10.030;2024-01-27T14:07:51;9.37;;;4.97;;
20093;SDS011;10206;48.012;10.030;2024-01-27T14:10:17;11.30;;;4.63;;
20093;SDS011;10206;48.012;10.030;2024-01-27T14:12:44;8.03;;;4.47;;
20093;SDS011;10206;48.012;10.030;2024-01-27T14:15:10;7.13;;;4.63;;
20093;SDS011;10206;48.012;10.030;2024-01-27T14:17:36;7.47;;;5.10;;
20093;SDS011;10206;48.012;10.030;2024-01-27T14:20:03;8.07;;;4.37;;
20093;SDS011;10206;48.012;10.030;2024-01-27T14:22:29;8.77;;;4.33;;
20093;SDS011;10206;48.012;10.030;2024-01-27T14:24:56;5.83;;;4.00;;
20093;SDS011;10206;48.012;10.030;2024-01-27T14:27:22;11.83;;;4.90;;